Time;durP1;ratioP1;P1;durP2;ratioP2;P2;SDS_P1;SDS_P2;PMS_P1;PMS_P2;Temp;Humidity;BMP_temperature;BMP_pressure;BME280_temperature;BME280_humidity;BME280_pressure;Samples;Min_cycle;Max_cycle;Signal;HPM_P1;HPM_P2
2022/12/08 00:00:12;;;;;;;30.03;20.90;;;1.40;99.90;;;;;;5073124;28;20619;-71
2022/12/08 00:02:42;;;;;;;26.13;19.47;;;1.50;99.90;;;;;;5072986;28;20219;-71
2022/12/08 00:10:34;;;;;;;30.43;20.93;;;1.40;99.90;;;;;;5080812;28;20196;-72
2022/12/08 00:13:02;;;;;;;29.33;21.53;;;1.30;99.90;;;;;;5081535;28;20201;-72
2022/12/08 00:15:30;;;;;;;31.50;21.77;;;1.30;99.90;;;;;;5081729;28;20322;-72
2022/12/08 00:17:56;;;;;;;28.43;20.13;;;1.30;99.90;;;;;;5081987;28;20204;-72
2022/12/08 00:20:23;;;;;;;29.47;21.27;;;1.30;99.90;;;;;;5081703;28;20201;-72
2022/12/08 00:22:49;;;;;;;29.47;20.90;;;1.30;99.90;;;;;;5080339;28;20251;-72
2022/12/08 00:25:16;;;;;;;28.20;20.73;;;1.30;99.90;;;;;;5082939;28;20205;-72
2022/12/08 00:27:43;;;;;;;26.43;19.73;;;1.30;99.90;;;;;;5082464;28;20254;-72
2022/12/08 00:30:10;;;;;;;29.83;20.67;;;1.30;99.90;;;;;;5083413;28;20197;-72
2022/12/08 00:32:38;;;;;;;30.03;20.47;;;1.30;99.90;;;;;;5082438;28;20243;-72
2022/12/08 00:35:05;;;;;;;29.00;20.20;;;1.30;99.90;;;;;;5081497;28;20203;-71
2022/12/08 00:37:32;;;;;;;26.73;20.30;;;1.30;99.90;;;;;;5081954;28;20196;-71
2022/12/08 00:39:58;;;;;;;28.80;20.60;;;1.30;99.90;;;;;;5081207;28;20197;-72
2022/12/08 00:42:25;;;;;;;27.80;19.83;;;1.30;99.90;;;;;;5085324;28;20233;-72
2022/12/08 00:44:53;;;;;;;27.63;18.73;;;1.30;99.90;;;;;;5086140;28;20193;-73
2022/12/08 00:47:20;;;;;;;32.73;21.00;;;1.20;99.90;;;;;;5086670;28;20201;-72
2022/12/08 00:49:47;;;;;;;31.33;21.53;;;1.20;99.90;;;;;;5080384;28;20263;-72
2022/12/08 00:52:14;;;;;;;32.23;20.63;;;1.20;99.90;;;;;;5077978;28;20201;-72
2022/12/08 00:54:41;;;;;;;30.70;20.03;;;1.20;99.90;;;;;;5077651;28;20656;-72
2022/12/08 00:57:07;;;;;;;29.77;20.20;;;1.20;99.90;;;;;;5076998;28;20205;-72
2022/12/08 00:59:34;;;;;;;28.23;20.63;;;1.20;99.90;;;;;;5076921;28;20201;-72
2022/12/08 01:02:01;;;;;;;30.87;21.20;;;1.20;99.90;;;;;;5076434;28;20270;-72
2022/12/08 01:04:27;;;;;;;30.43;20.90;;;1.20;99.90;;;;;;5076113;28;20250;-72
2022/12/08 01:06:55;;;;;;;29.73;20.40;;;1.20;99.90;;;;;;5076110;28;20201;-72
2022/12/08 01:09:22;;;;;;;30.63;20.73;;;1.20;99.90;;;;;;5075970;28;20233;-72
2022/12/08 01:11:49;;;;;;;32.97;21.63;;;1.20;99.90;;;;;;5076408;28;20197;-72
2022/12/08 01:14:15;;;;;;;31.47;21.63;;;1.20;99.90;;;;;;5076124;28;20200;-72
2022/12/08 01:16:42;;;;;;;32.90;22.17;;;1.20;99.90;;;;;;5076088;28;20201;-71
2022/12/08 01:19:10;;;;;;;33.40;21.63;;;1.20;99.90;;;;;;5076133;28;20194;-72
2022/12/08 01:21:37;;;;;;;28.30;19.60;;;1.20;99.90;;;;;;5075701;28;20203;-72
2022/12/08 01:24:06;;;;;;;28.83;19.43;;;1.20;99.90;;;;;;5075547;28;20306;-72
2022/12/08 01:26:33;;;;;;;31.27;20.97;;;1.20;99.90;;;;;;5075477;28;20577;-72
2022/12/08 01:28:59;;;;;;;27.40;19.30;;;1.20;99.90;;;;;;5075361;28;20711;-73
2022/12/08 01:31:26;;;;;;;29.47;20.70;;;1.20;99.90;;;;;;5075446;28;20197;-73
2022/12/08 01:33:53;;;;;;;29.03;20.27;;;1.20;99.90;;;;;;5075403;28;20714;-73
2022/12/08 01:36:22;;;;;;;27.27;19.37;;;1.20;99.90;;;;;;5075371;28;20197;-72
2022/12/08 01:38:48;;;;;;;30.33;19.77;;;1.20;99.90;;;;;;5075657;28;20197;-73
2022/12/08 01:41:19;;;;;;;28.00;18.90;;;1.20;99.90;;;;;;5075404;28;20246;-73
2022/12/08 01:43:57;;;;;;;32.37;20.40;;;1.20;99.90;;;;;;5075346;28;20628;-73
2022/12/08 01:46:24;;;;;;;30.80;20.57;;;1.20;99.90;;;;;;5075186;28;20201;-73
2022/12/08 01:48:56;;;;;;;27.50;19.40;;;1.20;99.90;;;;;;5074964;28;20193;-73
2022/12/08 01:51:23;;;;;;;29.50;20.03;;;1.10;99.90;;;;;;5075390;28;20254;-73
2022/12/08 01:53:50;;;;;;;28.90;19.97;;;1.00;99.90;;;;;;5075304;28;20200;-73
2022/12/08 01:56:25;;;;;;;32.63;20.40;;;1.00;99.90;;;;;;5074863;28;20594;-73
2022/12/08 01:58:54;;;;;;;31.27;20.10;;;1.00;99.90;;;;;;5074880;28;20719;-73
2022/12/08 02:01:21;;;;;;;32.07;20.23;;;0.90;99.90;;;;;;5074881;28;20197;-73
2022/12/08 02:03:52;;;;;;;32.97;21.53;;;0.90;99.90;;;;;;5074871;28;20220;-72
2022/12/08 02:06:20;;;;;;;31.00;19.67;;;0.80;99.90;;;;;;5074747;28;20653;-73
2022/12/08 02:08:47;;;;;;;32.03;20.87;;;0.80;99.90;;;;;;5074668;28;20229;-72
2022/12/08 02:11:14;;;;;;;34.07;20.70;;;0.70;99.90;;;;;;5074924;28;20602;-73
2022/12/08 02:13:44;;;;;;;30.40;20.40;;;0.70;99.90;;;;;;5075275;28;20197;-73
2022/12/08 02:16:21;;;;;;;32.23;21.20;;;0.70;99.90;;;;;;5075341;28;20201;-72
2022/12/08 02:19:08;;;;;;;30.63;19.67;;;0.70;99.90;;;;;;5075240;28;20201;-73
2022/12/08 02:21:41;;;;;;;34.67;20.67;;;0.60;99.90;;;;;;5075012;28;20242;-72
2022/12/08 02:24:14;;;;;;;34.20;21.10;;;0.60;99.90;;;;;;5075043;28;20266;-73
2022/12/08 02:27:17;;;;;;;33.30;21.23;;;0.60;99.90;;;;;;5075425;28;20548;-72
2022/12/08 02:30:18;;;;;;;30.87;20.27;;;0.60;99.90;;;;;;5075326;28;20222;-73
2022/12/08 02:33:26;;;;;;;32.53;19.83;;;0.60;99.90;;;;;;5073908;28;20266;-73
2022/12/08 02:36:02;;;;;;;34.37;20.83;;;0.60;99.90;;;;;;5074460;28;20649;-73
2022/12/08 02:38:43;;;;;;;35.30;20.87;;;0.60;99.90;;;;;;5074736;28;20197;-73
2022/12/08 02:41:20;;;;;;;32.67;20.47;;;0.60;99.90;;;;;;5075192;28;20649;-73
2022/12/08 02:43:48;;;;;;;33.03;20.17;;;0.60;99.90;;;;;;5074701;28;20273;-73
2022/12/08 02:46:21;;;;;;;32.13;20.30;;;0.60;99.90;;;;;;5074477;28;20656;-73
2022/12/08 02:48:49;;;;;;;34.70;21.17;;;0.70;99.90;;;;;;5074838;28;20197;-73
2022/12/08 02:51:17;;;;;;;32.57;20.17;;;0.70;99.90;;;;;;5075400;28;20656;-73
2022/12/08 02:53:44;;;;;;;30.93;20.77;;;0.70;99.90;;;;;;5074476;28;20200;-73
2022/12/08 02:56:22;;;;;;;29.40;18.10;;;0.80;99.90;;;;;;5075075;28;20196;-73
2022/12/08 02:59:07;;;;;;;29.73;19.70;;;0.80;99.90;;;;;;5074969;28;20792;-73
2022/12/08 03:01:56;;;;;;;32.93;20.53;;;0.70;99.90;;;;;;5074249;28;20200;-73
2022/12/08 03:04:33;;;;;;;28.93;18.80;;;0.70;99.90;;;;;;5073942;28;20221;-73
2022/12/08 03:07:08;;;;;;;26.67;16.70;;;0.60;99.90;;;;;;5073787;28;20254;-73
2022/12/08 03:09:38;;;;;;;30.67;19.97;;;0.60;99.90;;;;;;5073577;28;20224;-71
2022/12/08 03:12:13;;;;;;;31.00;19.70;;;0.60;99.90;;;;;;5073806;28;20224;-71
2022/12/08 03:14:44;;;;;;;29.13;18.63;;;0.60;99.90;;;;;;5073840;28;20196;-71
2022/12/08 03:17:12;;;;;;;34.27;19.67;;;0.50;99.90;;;;;;5073596;28;20197;-71
2022/12/08 03:19:42;;;;;;;33.50;20.40;;;0.50;99.90;;;;;;5073498;28;20227;-71
2022/12/08 03:22:13;;;;;;;31.37;19.73;;;0.50;99.90;;;;;;5073592;28;20201;-71
2022/12/08 03:24:43;;;;;;;29.83;19.03;;;0.40;99.90;;;;;;5073231;28;20216;-71
2022/12/08 03:27:12;;;;;;;32.37;19.97;;;0.40;99.90;;;;;;5073499;28;20263;-71
2022/12/08 03:29:39;;;;;;;30.67;18.93;;;0.30;99.90;;;;;;5073560;28;20201;-71
2022/12/08 03:32:11;;;;;;;30.50;19.17;;;0.40;99.90;;;;;;5073455;28;20200;-71
2022/12/08 03:34:41;;;;;;;30.60;19.07;;;0.40;99.90;;;;;;5073545;28;20223;-71
2022/12/08 03:37:09;;;;;;;31.97;19.90;;;0.40;99.90;;;;;;5073438;28;20721;-71
2022/12/08 03:39:36;;;;;;;31.40;18.97;;;0.40;99.90;;;;;;5073504;28;20255;-71
2022/12/08 03:42:03;;;;;;;28.50;19.00;;;0.40;99.90;;;;;;5073266;28;20243;-71
2022/12/08 03:44:29;;;;;;;28.60;18.43;;;0.40;99.90;;;;;;5072996;28;20695;-71
2022/12/08 03:46:56;;;;;;;29.57;19.87;;;0.40;99.90;;;;;;5073283;28;20200;-71
2022/12/08 03:49:23;;;;;;;28.40;18.03;;;0.40;99.90;;;;;;5073118;28;20197;-71
2022/12/08 03:51:50;;;;;;;31.40;19.43;;;0.40;99.90;;;;;;5073131;28;20247;-71
2022/12/08 03:54:18;;;;;;;29.97;19.30;;;0.40;99.90;;;;;;5073347;28;20208;-71
2022/12/08 03:56:44;;;;;;;29.47;18.87;;;0.40;99.90;;;;;;5073122;28;20548;-71
2022/12/08 03:59:11;;;;;;;29.30;18.87;;;0.40;99.90;;;;;;5072967;28;20656;-71
2022/12/08 04:01:38;;;;;;;29.27;18.03;;;0.40;99.90;;;;;;5073078;28;20204;-71
2022/12/08 04:04:04;;;;;;;31.30;20.63;;;0.40;99.90;;;;;;5072835;28;20250;-71
2022/12/08 04:06:31;;;;;;;31.57;19.03;;;0.30;99.90;;;;;;5072739;28;20274;-72
2022/12/08 04:08:59;;;;;;;30.27;18.50;;;0.30;99.90;;;;;;5072649;28;20954;-72
2022/12/08 04:11:27;;;;;;;31.57;18.57;;;0.30;99.90;;;;;;5073091;28;20266;-71
2022/12/08 04:13:53;;;;;;;30.50;18.87;;;0.20;99.90;;;;;;5072917;28;20254;-72
2022/12/08 04:16:23;;;;;;;30.97;19.73;;;0.20;99.90;;;;;;5072855;28;20538;-72
2022/12/08 04:18:50;;;;;;;31.40;19.60;;;0.20;99.90;;;;;;5073728;28;20292;-72
2022/12/08 04:21:17;;;;;;;28.73;17.77;;;0.20;99.90;;;;;;5074512;28;20201;-72
2022/12/08 04:23:44;;;;;;;29.97;19.03;;;0.20;99.90;;;;;;5074196;28;20213;-72
2022/12/08 04:26:11;;;;;;;30.90;18.30;;;0.20;99.90;;;;;;5073698;28;20609;-72
2022/12/08 04:28:39;;;;;;;33.30;19.90;;;0.20;99.90;;;;;;5074009;28;20256;-72
2022/12/08 04:31:06;;;;;;;28.70;18.43;;;0.20;99.90;;;;;;5073760;28;20205;-72
2022/12/08 04:33:34;;;;;;;28.40;19.07;;;0.20;99.90;;;;;;5073815;28;20262;-72
2022/12/08 04:36:02;;;;;;;34.00;19.93;;;0.20;99.90;;;;;;5074375;28;20203;-74
2022/12/08 04:38:28;;;;;;;28.73;19.70;;;0.20;99.90;;;;;;5073644;28;20205;-72
2022/12/08 04:40:55;;;;;;;32.00;19.77;;;0.20;99.90;;;;;;5073500;28;20205;-72
2022/12/08 04:43:22;;;;;;;30.27;19.50;;;0.10;99.90;;;;;;5072719;28;20224;-72
2022/12/08 04:45:50;;;;;;;35.07;20.60;;;0.20;99.90;;;;;;5072542;28;20361;-72
2022/12/08 04:48:16;;;;;;;30.17;19.67;;;0.20;99.90;;;;;;5072945;28;20263;-72
2022/12/08 04:50:44;;;;;;;32.00;19.87;;;0.20;99.90;;;;;;5072578;28;20201;-72
2022/12/08 04:53:12;;;;;;;29.63;19.20;;;0.20;99.90;;;;;;5072486;28;20710;-72
2022/12/08 04:55:40;;;;;;;34.27;20.37;;;0.20;99.90;;;;;;5074463;28;20247;-72
2022/12/08 04:58:06;;;;;;;30.23;18.60;;;0.20;99.90;;;;;;5076123;28;20204;-72
2022/12/08 05:00:33;;;;;;;34.60;18.77;;;0.20;99.90;;;;;;5076065;28;20254;-71
2022/12/08 05:03:01;;;;;;;28.63;18.60;;;0.20;99.90;;;;;;5076506;28;20286;-71
2022/12/08 05:05:28;;;;;;;30.80;17.93;;;0.20;99.90;;;;;;5076399;28;20557;-71
2022/12/08 05:07:54;;;;;;;27.83;18.53;;;0.20;99.90;;;;;;5076107;28;20765;-71
2022/12/08 05:10:21;;;;;;;31.20;19.23;;;0.20;99.90;;;;;;5076151;28;20197;-72
2022/12/08 05:12:47;;;;;;;29.83;18.93;;;0.20;99.90;;;;;;5075792;28;20602;-71
2022/12/08 05:15:15;;;;;;;29.00;18.53;;;0.20;99.90;;;;;;5076168;28;20238;-73
2022/12/08 05:17:42;;;;;;;28.43;18.37;;;0.20;99.90;;;;;;5076155;28;20243;-71
2022/12/08 05:20:11;;;;;;;31.13;18.63;;;0.30;99.90;;;;;;5076180;28;20201;-71
2022/12/08 05:22:38;;;;;;;28.13;17.97;;;0.30;99.90;;;;;;5075328;28;20204;-72
2022/12/08 05:25:05;;;;;;;30.60;18.43;;;0.30;99.90;;;;;;5075221;28;20260;-72
2022/12/08 05:27:32;;;;;;;26.67;17.63;;;0.30;99.90;;;;;;5075045;28;20200;-71
2022/12/08 05:29:58;;;;;;;31.10;18.27;;;0.40;99.90;;;;;;5074779;28;20205;-71
2022/12/08 05:32:25;;;;;;;26.53;17.53;;;0.30;99.90;;;;;;5073996;28;20201;-71
2022/12/08 05:34:52;;;;;;;32.53;17.87;;;0.30;99.90;;;;;;5074736;28;20193;-71
2022/12/08 05:37:19;;;;;;;28.07;17.33;;;0.40;99.90;;;;;;5076044;28;20197;-72
2022/12/08 05:39:46;;;;;;;28.80;18.27;;;0.40;99.90;;;;;;5076041;28;20255;-72
2022/12/08 05:42:13;;;;;;;28.60;17.50;;;0.50;99.90;;;;;;5077137;28;20205;-72
2022/12/08 05:44:39;;;;;;;31.20;18.90;;;0.50;99.90;;;;;;5074420;28;20561;-72
2022/12/08 05:47:06;;;;;;;29.57;18.43;;;0.50;99.90;;;;;;5074247;28;20205;-72
2022/12/08 05:49:33;;;;;;;27.70;18.47;;;0.40;99.90;;;;;;5072706;28;20197;-72
2022/12/08 05:52:00;;;;;;;27.40;17.80;;;0.50;99.90;;;;;;5073117;28;20201;-72
2022/12/08 05:54:27;;;;;;;29.77;18.37;;;0.50;99.90;;;;;;5074542;28;20212;-72
2022/12/08 05:56:54;;;;;;;29.13;18.03;;;0.50;99.90;;;;;;5074625;28;20196;-72
2022/12/08 05:59:21;;;;;;;30.03;18.00;;;0.50;99.90;;;;;;5076041;28;20302;-72
2022/12/08 06:01:47;;;;;;;30.50;18.60;;;0.50;99.90;;;;;;5080487;28;20227;-72
2022/12/08 06:04:14;;;;;;;32.10;18.23;;;0.50;99.90;;;;;;5081691;28;20221;-72
2022/12/08 06:06:41;;;;;;;28.60;18.27;;;0.50;99.90;;;;;;5079393;28;20231;-72
2022/12/08 06:09:08;;;;;;;30.07;18.03;;;0.50;99.90;;;;;;5072664;28;20232;-72
2022/12/08 06:11:36;;;;;;;27.57;18.20;;;0.50;99.90;;;;;;5072234;28;20212;-72
2022/12/08 06:14:02;;;;;;;30.27;18.23;;;0.50;99.90;;;;;;5072826;28;20205;-72
2022/12/08 06:16:30;;;;;;;28.07;16.70;;;0.50;99.90;;;;;;5072293;28;20686;-70
2022/12/08 06:18:57;;;;;;;28.60;17.17;;;0.50;99.90;;;;;;5072198;28;20207;-72
2022/12/08 06:21:24;;;;;;;24.63;16.90;;;0.60;99.90;;;;;;5072000;28;20200;-72
2022/12/08 06:23:53;;;;;;;26.87;16.77;;;0.60;99.90;;;;;;5071517;28;20225;-72
2022/12/08 06:26:21;;;;;;;29.73;17.33;;;0.60;99.90;;;;;;5072004;28;20250;-72
2022/12/08 06:28:50;;;;;;;36.87;20.30;;;0.60;99.90;;;;;;5071797;28;20721;-72
2022/12/08 06:31:20;;;;;;;31.37;17.33;;;0.60;99.90;;;;;;5074589;28;20193;-72
2022/12/08 06:33:47;;;;;;;28.17;18.27;;;0.60;99.90;;;;;;5074583;28;20622;-72
2022/12/08 06:36:16;;;;;;;37.60;22.63;;;0.60;99.90;;;;;;5074333;28;20227;-72
2022/12/08 06:38:43;;;;;;;32.97;19.87;;;0.60;99.90;;;;;;5076152;28;20530;-72
2022/12/08 06:41:10;;;;;;;26.63;16.53;;;0.70;99.90;;;;;;5076033;28;20204;-72
2022/12/08 06:43:37;;;;;;;28.53;19.73;;;0.70;99.90;;;;;;5074559;28;20197;-72
2022/12/08 06:46:07;;;;;;;25.07;16.77;;;0.70;99.90;;;;;;5074190;28;20225;-72
2022/12/08 06:48:34;;;;;;;28.63;18.37;;;0.70;99.90;;;;;;5074069;28;20200;-72
2022/12/08 06:51:06;;;;;;;27.33;16.60;;;0.70;99.90;;;;;;5073928;28;20204;-73
2022/12/08 06:53:33;;;;;;;28.87;17.63;;;0.70;99.90;;;;;;5074294;28;20243;-73
2022/12/08 06:55:59;;;;;;;26.90;17.17;;;0.80;99.90;;;;;;5074109;28;20204;-73
2022/12/08 06:58:26;;;;;;;30.07;17.90;;;0.80;99.90;;;;;;5077199;28;20201;-75
2022/12/08 07:00:52;;;;;;;25.50;16.77;;;0.80;99.90;;;;;;5074727;28;20197;-74
2022/12/08 07:03:21;;;;;;;25.37;17.30;;;0.70;99.90;;;;;;5073644;28;20560;-74
2022/12/08 07:05:47;;;;;;;23.40;16.57;;;0.80;99.90;;;;;;5073891;28;20761;-74
2022/12/08 07:08:14;;;;;;;22.73;14.63;;;0.80;99.90;;;;;;5073725;28;20283;-75
2022/12/08 07:10:41;;;;;;;22.47;14.53;;;0.70;99.90;;;;;;5074005;28;20266;-75
2022/12/08 07:13:08;;;;;;;25.90;15.27;;;0.70;99.90;;;;;;5074695;28;20193;-74
2022/12/08 07:15:34;;;;;;;22.80;14.70;;;0.70;99.90;;;;;;5074863;28;20259;-74
2022/12/08 07:18:01;;;;;;;20.23;13.13;;;0.80;99.90;;;;;;5075958;28;20200;-73
2022/12/08 07:20:29;;;;;;;20.00;14.07;;;0.80;99.90;;;;;;5075659;28;20197;-73
2022/12/08 07:22:56;;;;;;;27.83;16.17;;;0.80;99.90;;;;;;5075279;28;20255;-73
2022/12/08 07:25:23;;;;;;;21.60;14.67;;;0.80;99.90;;;;;;5076081;28;20840;-73
2022/12/08 07:27:50;;;;;;;22.13;15.27;;;0.80;99.90;;;;;;5075049;28;20196;-73
2022/12/08 07:30:17;;;;;;;23.30;14.67;;;0.90;99.90;;;;;;5075306;28;20196;-74
2022/12/08 07:32:44;;;;;;;25.83;14.07;;;0.80;99.90;;;;;;5075347;28;20197;-75
2022/12/08 07:35:11;;;;;;;22.50;14.57;;;0.80;99.90;;;;;;5075925;28;20255;-75
2022/12/08 07:37:39;;;;;;;22.73;15.23;;;0.80;99.90;;;;;;5074152;28;20228;-74
2022/12/08 07:40:07;;;;;;;21.50;14.00;;;0.90;99.90;;;;;;5074500;28;20197;-74
2022/12/08 07:42:34;;;;;;;21.93;14.40;;;0.90;99.90;;;;;;5075559;28;20254;-74
2022/12/08 07:45:01;;;;;;;26.90;15.63;;;0.90;99.90;;;;;;5074760;28;20279;-74
2022/12/08 07:47:28;;;;;;;19.17;13.30;;;0.90;99.90;;;;;;5075922;28;20205;-74
2022/12/08 07:49:54;;;;;;;20.17;13.87;;;0.90;99.90;;;;;;5075141;28;20201;-72
2022/12/08 07:52:22;;;;;;;19.67;13.70;;;0.90;99.90;;;;;;5075891;28;20200;-74
2022/12/08 07:54:50;;;;;;;19.83;13.50;;;0.90;99.90;;;;;;5076640;28;20260;-73
2022/12/08 07:57:16;;;;;;;23.17;14.43;;;1.00;99.90;;;;;;5076394;28;20200;-75
2022/12/08 07:59:43;;;;;;;20.90;13.90;;;0.90;99.90;;;;;;5075207;28;20222;-72
2022/12/08 08:02:17;;;;;;;21.30;13.73;;;1.00;99.90;;;;;;5073582;28;20205;-73
2022/12/08 08:04:43;;;;;;;22.27;13.67;;;1.00;99.90;;;;;;5073569;28;20223;-77
2022/12/08 08:07:10;;;;;;;19.30;13.00;;;1.00;99.90;;;;;;5074132;28;20453;-72
2022/12/08 08:09:37;;;;;;;21.60;15.03;;;1.00;99.90;;;;;;5073162;28;20642;-72
2022/12/08 08:12:05;;;;;;;48.23;29.23;;;0.90;99.90;;;;;;5073695;28;20606;-73
2022/12/08 08:14:32;;;;;;;32.27;20.23;;;1.00;99.90;;;;;;5078819;28;20682;-73
2022/12/08 08:16:59;;;;;;;31.73;19.47;;;1.00;99.90;;;;;;5082219;28;20227;-74
2022/12/08 08:19:25;;;;;;;21.60;14.53;;;1.00;99.90;;;;;;5079813;28;20201;-75
2022/12/08 08:21:52;;;;;;;21.90;14.07;;;1.00;99.90;;;;;;5081319;28;20201;-74
2022/12/08 08:24:20;;;;;;;17.47;12.27;;;1.10;99.90;;;;;;5082848;28;20197;-73
2022/12/08 08:26:47;;;;;;;18.67;12.50;;;1.00;99.90;;;;;;5078411;28;20224;-73
2022/12/08 08:29:15;;;;;;;19.13;13.40;;;1.00;99.90;;;;;;5073556;28;20204;-73
2022/12/08 08:31:41;;;;;;;19.50;13.73;;;1.10;99.90;;;;;;5077151;28;20254;-73
2022/12/08 08:34:08;;;;;;;20.13;13.13;;;1.10;99.90;;;;;;5077459;28;20200;-73
2022/12/08 08:36:35;;;;;;;19.77;14.53;;;1.10;99.90;;;;;;5077011;28;20205;-73
2022/12/08 08:39:02;;;;;;;21.27;13.77;;;1.10;99.90;;;;;;5076783;28;20201;-73
2022/12/08 08:41:28;;;;;;;18.30;13.10;;;1.20;99.90;;;;;;5076797;28;20283;-73
2022/12/08 08:43:55;;;;;;;19.77;12.70;;;1.20;99.90;;;;;;5083106;28;20200;-73
2022/12/08 08:46:23;;;;;;;20.73;13.67;;;1.30;99.90;;;;;;5068419;28;20229;-72
2022/12/08 08:48:50;;;;;;;21.30;13.83;;;1.30;99.90;;;;;;5074572;28;20262;-72
2022/12/08 08:51:18;;;;;;;20.27;12.37;;;1.40;99.90;;;;;;5058212;28;20197;-72
2022/12/08 08:53:44;;;;;;;16.83;11.87;;;1.40;99.90;;;;;;5076418;28;20201;-72
2022/12/08 08:56:12;;;;;;;17.60;11.93;;;1.30;99.90;;;;;;5077184;28;20192;-72
2022/12/08 08:58:39;;;;;;;17.00;11.80;;;1.40;99.90;;;;;;5070156;28;20657;-72
2022/12/08 09:01:06;;;;;;;16.53;11.50;;;1.40;99.90;;;;;;5056391;28;20684;-72
2022/12/08 09:03:34;;;;;;;18.20;11.40;;;1.40;99.90;;;;;;5075482;28;20209;-72
2022/12/08 09:06:01;;;;;;;15.20;10.27;;;1.40;99.90;;;;;;5076172;28;20224;-72
2022/12/08 09:08:27;;;;;;;15.47;10.47;;;1.50;99.90;;;;;;5076173;28;20246;-73
2022/12/08 09:10:54;;;;;;;13.70;10.77;;;1.40;99.90;;;;;;5076728;28;20197;-74
2022/12/08 09:13:22;;;;;;;17.13;11.97;;;1.40;99.90;;;;;;5076308;28;20193;-73
2022/12/08 09:15:49;;;;;;;16.17;11.60;;;1.40;99.90;;;;;;5076311;28;20262;-73
2022/12/08 09:18:15;;;;;;;18.60;11.73;;;1.40;99.90;;;;;;5075976;28;20219;-73
2022/12/08 09:20:43;;;;;;;19.13;11.43;;;1.50;99.90;;;;;;5076826;28;20247;-72
2022/12/08 09:23:10;;;;;;;19.20;12.13;;;1.60;99.90;;;;;;5075885;28;20205;-72
2022/12/08 09:25:37;;;;;;;15.50;10.73;;;1.60;99.90;;;;;;5076012;28;20221;-72
2022/12/08 09:28:04;;;;;;;16.57;10.77;;;1.50;99.90;;;;;;5075831;28;20330;-72
2022/12/08 09:30:30;;;;;;;18.50;10.13;;;1.60;99.90;;;;;;5076038;28;20276;-72
2022/12/08 09:32:57;;;;;;;17.33;10.73;;;1.60;99.90;;;;;;5075953;28;20246;-72
2022/12/08 09:35:24;;;;;;;16.27;10.80;;;1.60;99.90;;;;;;5076004;28;20197;-72
2022/12/08 09:37:52;;;;;;;15.40;11.03;;;1.70;99.90;;;;;;5077166;28;20227;-75
2022/12/08 09:40:22;;;;;;;14.00;10.13;;;1.70;99.90;;;;;;5077172;28;20223;-71
2022/12/08 09:42:53;;;;;;;16.70;11.17;;;1.70;99.90;;;;;;5076392;28;20231;-72
2022/12/08 09:45:23;;;;;;;15.73;10.40;;;1.80;99.90;;;;;;5076684;28;20213;-71
2022/12/08 09:47:58;;;;;;;15.90;10.20;;;1.90;99.90;;;;;;5076312;28;20201;-72
2022/12/08 09:50:32;;;;;;;19.40;11.20;;;2.00;99.90;;;;;;5075644;28;20204;-74
2022/12/08 09:53:05;;;;;;;15.33;10.47;;;2.10;99.90;;;;;;5056305;28;20197;-72
2022/12/08 09:55:41;;;;;;;14.83;10.50;;;2.00;99.90;;;;;;5063506;28;20193;-72
2022/12/08 09:58:17;;;;;;;14.10;9.37;;;2.00;99.90;;;;;;5095735;28;20200;-71
2022/12/08 10:00:44;;;;;;;20.27;10.93;;;1.90;99.90;;;;;;5095421;28;20200;-74
2022/12/08 10:03:12;;;;;;;15.43;10.17;;;2.10;99.90;;;;;;5093359;28;20208;-72
2022/12/08 10:05:46;;;;;;;13.17;9.83;;;2.20;99.90;;;;;;5092708;28;20738;-73
2022/12/08 10:08:20;;;;;;;12.97;9.03;;;2.20;99.90;;;;;;5069277;28;20225;-73
2022/12/08 10:10:51;;;;;;;14.57;10.37;;;2.20;99.90;;;;;;5052037;28;20202;-73
2022/12/08 10:13:25;;;;;;;15.37;10.37;;;2.10;99.90;;;;;;5069114;28;20197;-73
2022/12/08 10:16:02;;;;;;;13.20;9.90;;;2.30;99.90;;;;;;5072394;28;20615;-73
2022/12/08 10:18:30;;;;;;;13.97;10.23;;;2.30;99.90;;;;;;5071930;28;20652;-73
2022/12/08 10:21:04;;;;;;;12.97;9.37;;;2.20;99.90;;;;;;5072292;28;20201;-73
2022/12/08 10:23:36;;;;;;;13.63;9.73;;;2.50;99.90;;;;;;5072200;28;20250;-73
2022/12/08 10:26:05;;;;;;;15.63;10.00;;;2.40;99.90;;;;;;5071906;28;20561;-73
2022/12/08 10:28:33;;;;;;;12.27;8.90;;;2.70;99.90;;;;;;5072045;28;20232;-72
2022/12/08 10:31:00;;;;;;;12.93;8.83;;;2.50;99.90;;;;;;5072101;28;20201;-72
2022/12/08 10:33:28;;;;;;;13.70;9.27;;;2.40;99.90;;;;;;5071963;28;20201;-73
2022/12/08 10:35:58;;;;;;;15.53;10.40;;;2.60;99.90;;;;;;5071507;28;20208;-72
2022/12/08 10:38:29;;;;;;;14.33;9.27;;;2.60;99.90;;;;;;5071599;28;20667;-72
2022/12/08 10:41:00;;;;;;;18.03;9.83;;;2.70;99.90;;;;;;5072217;28;20729;-72
2022/12/08 10:43:27;;;;;;;16.40;10.83;;;2.60;99.90;;;;;;5071965;28;20201;-71
2022/12/08 10:45:54;;;;;;;16.37;10.60;;;2.60;99.90;;;;;;5072242;28;20246;-72
2022/12/08 10:48:24;;;;;;;37.83;21.63;;;2.80;99.90;;;;;;5072016;28;20258;-72
2022/12/08 10:50:55;;;;;;;40.03;21.03;;;2.60;99.90;;;;;;5072155;28;20259;-73
2022/12/08 10:53:24;;;;;;;32.10;19.10;;;2.60;99.90;;;;;;5072278;28;20194;-72
2022/12/08 10:55:53;;;;;;;37.30;24.03;;;2.70;99.90;;;;;;5073627;28;20205;-73
2022/12/08 10:58:26;;;;;;;16.60;12.13;;;2.80;99.90;;;;;;5074432;28;20201;-74
2022/12/08 11:00:55;;;;;;;13.50;10.33;;;2.80;99.90;;;;;;5075699;28;20201;-73
2022/12/08 11:03:26;;;;;;;15.30;9.20;;;2.70;99.90;;;;;;5074551;28;20729;-73
2022/12/08 11:05:57;;;;;;;15.47;9.83;;;2.70;99.90;;;;;;5073556;28;20220;-73
2022/12/08 11:08:24;;;;;;;19.30;10.40;;;3.00;99.90;;;;;;5071330;28;20236;-73
2022/12/08 11:10:51;;;;;;;11.53;8.53;;;3.20;99.90;;;;;;5072012;28;20796;-73
2022/12/08 11:13:22;;;;;;;14.90;9.80;;;3.20;99.90;;;;;;5071563;28;20596;-73
2022/12/08 11:15:51;;;;;;;18.10;9.63;;;3.00;99.90;;;;;;5077149;28;20269;-73
2022/12/08 11:18:25;;;;;;;11.63;8.87;;;2.90;99.90;;;;;;5076086;28;20197;-73
2022/12/08 11:21:07;;;;;;;17.33;9.60;;;2.80;99.90;;;;;;5075507;28;20219;-73
2022/12/08 11:23:36;;;;;;;11.10;8.37;;;2.70;99.90;;;;;;5070098;28;20277;-73
2022/12/08 11:26:10;;;;;;;13.30;8.50;;;2.70;99.90;;;;;;5060913;28;20225;-73
2022/12/08 11:28:37;;;;;;;12.37;8.67;;;2.60;99.90;;;;;;5074007;28;20572;-74
2022/12/08 11:31:20;;;;;;;12.13;8.70;;;2.60;99.90;;;;;;5075942;28;20258;-73
2022/12/08 11:33:48;;;;;;;15.03;9.57;;;2.70;99.90;;;;;;5074151;28;20205;-73
2022/12/08 11:36:16;;;;;;;15.17;9.13;;;2.70;99.90;;;;;;5074382;28;20189;-73
2022/12/08 11:38:46;;;;;;;12.13;8.10;;;2.80;99.90;;;;;;5074563;28;20255;-73
2022/12/08 11:41:16;;;;;;;12.97;8.70;;;2.70;99.90;;;;;;5074804;28;20652;-73
2022/12/08 11:43:50;;;;;;;13.97;8.97;;;2.60;99.90;;;;;;5076381;28;20197;-73
2022/12/08 11:46:22;;;;;;;13.77;9.30;;;2.70;99.90;;;;;;5082335;28;20220;-73
2022/12/08 11:48:53;;;;;;;13.90;8.67;;;2.80;99.90;;;;;;5080903;28;20255;-73
2022/12/08 11:51:28;;;;;;;12.87;8.70;;;2.80;99.90;;;;;;5073518;28;20283;-73
2022/12/08 11:54:13;;;;;;;11.97;8.23;;;3.00;99.90;;;;;;5068060;28;20196;-73
2022/12/08 11:56:44;;;;;;;10.57;8.37;;;3.20;99.90;;;;;;5066874;28;20288;-77
2022/12/08 11:59:22;;;;;;;11.50;7.53;;;3.10;99.90;;;;;;5062056;28;20229;-74
2022/12/08 12:01:50;;;;;;;12.43;8.30;;;3.00;99.90;;;;;;5081264;28;20200;-73
2022/12/08 12:04:24;;;;;;;11.23;8.23;;;2.90;99.90;;;;;;5080693;28;20200;-74
2022/12/08 12:07:25;;;;;;;10.73;8.00;;;3.00;99.90;;;;;;5085461;28;20271;-76
2022/12/08 12:10:07;;;;;;;12.40;7.93;;;3.20;99.90;;;;;;5077527;28;20290;-75
2022/12/08 12:12:51;;;;;;;11.20;8.23;;;2.90;99.90;;;;;;5078240;28;20254;-74
2022/12/08 12:16:03;;;;;;;14.30;7.93;;;2.70;99.90;;;;;;5078275;28;20250;-75
2022/12/08 12:18:35;;;;;;;11.17;7.53;;;2.70;99.90;;;;;;5072781;28;20201;-74
2022/12/08 12:21:07;;;;;;;13.07;7.93;;;2.60;99.90;;;;;;5078127;28;20205;-74
2022/12/08 12:23:38;;;;;;;10.43;7.80;;;2.50;99.90;;;;;;5077974;28;20262;-74
2022/12/08 12:26:07;;;;;;;12.13;7.97;;;2.30;99.90;;;;;;5077837;28;20630;-74
2022/12/08 12:28:42;;;;;;;13.27;8.00;;;2.30;99.90;;;;;;5078231;28;20733;-74
2022/12/08 12:31:12;;;;;;;13.70;7.77;;;2.40;99.90;;;;;;5078744;28;20214;-74
2022/12/08 12:33:40;;;;;;;11.90;7.60;;;2.40;99.90;;;;;;5078868;28;20287;-74
2022/12/08 12:36:09;;;;;;;9.67;7.37;;;2.40;99.90;;;;;;5078072;28;20197;-74
2022/12/08 12:41:24;;;;;;;12.77;8.57;;;2.40;99.90;;;;;;5078385;28;20259;-76
2022/12/08 12:44:35;;;;;;;12.60;6.33;;;2.50;99.90;;;;;;5077470;28;20262;-75
2022/12/08 12:47:04;;;;;;;10.90;6.97;;;2.50;99.90;;;;;;5077153;28;20239;-74
2022/12/08 12:50:05;;;;;;;9.67;6.57;;;2.50;99.90;;;;;;5077810;28;20228;-74
2022/12/08 12:52:48;;;;;;;8.67;6.37;;;2.40;99.90;;;;;;5077828;28;20219;-74
2022/12/08 12:55:48;;;;;;;9.17;7.27;;;2.30;99.90;;;;;;5078863;28;20197;-73
2022/12/08 12:58:39;;;;;;;12.73;8.00;;;2.40;99.90;;;;;;5076548;28;20659;-73